Time,TemperatureF,DewpointF,PressureIn,WindDirection,WindDirectionDegrees,WindSpeedMPH,WindSpeedGustMPH,Humidity,HourlyPrecipIn,Conditions,Clouds,dailyrainin,SoftwareType,DateUTC
2013-01-09 00:02:00,32.6,26.5,30.21,SE,135,9.6,11.4,78,0.00,,,0.00,WUHU216HW,2013-01-09 05:02:00,
2013-01-09 00:07:00,32.6,26.5,30.21,SSE,158,8.3,9.6,78,0.00,,,0.00,WUHU216HW,2013-01-09 05:07:00,
2013-01-09 00:12:00,32.8,26.3,30.21,South,180,8.7,9.6,77,0.00,,,0.00,WUHU216HW,2013-01-09 05:12:00,
2013-01-09 00:17:00,32.8,26.3,30.21,SSE,158,7.6,9.4,77,0.00,,,0.00,WUHU216HW,2013-01-09 05:17:00,
2013-01-09 00:22:00,32.6,26.2,30.20,SE,135,8.1,9.8,77,0.00,,,0.00,WUHU216HW,2013-01-09 05:22:00,
2013-01-09 00:27:00,32.4,26.0,30.20,SSE,158,11.0,11.0,77,0.00,,,0.00,WUHU216HW,2013-01-09 05:27:00,
2013-01-09 00:32:00,32.8,26.3,30.20,SW,225,8.1,11.0,77,0.00,,,0.00,WUHU216HW,2013-01-09 05:32:00,
2013-01-09 00:37:00,32.6,26.2,30.19,SSE,158,9.2,9.2,77,0.00,,,0.00,WUHU216HW,2013-01-09 05:37:00,
2013-01-09 00:42:00,32.6,26.2,30.19,SE,135,6.5,9.2,77,0.00,,,0.00,WUHU216HW,2013-01-09 05:42:00,
2013-01-09 00:47:00,32.6,26.2,30.19,SSW,203,7.6,9.2,77,0.00,,,0.00,WUHU216HW,2013-01-09 05:47:00,
2013-01-09 00:52:00,32.6,26.5,30.19,SSW,203,7.8,9.4,78,0.00,,,0.00,WUHU216HW,2013-01-09 05:52:00,
2013-01-09 00:57:00,32.6,26.5,30.18,SSW,203,8.9,9.4,78,0.00,,,0.00,WUHU216HW,2013-01-09 05:57:00,
2013-01-09 01:02:00,32.8,26.6,30.18,SSW,203,8.5,10.7,78,0.00,,,0.00,WUHU216HW,2013-01-09 06:02:00,
2013-01-09 01:07:00,32.8,26.6,30.18,SSW,203,10.7,10.7,78,0.00,,,0.00,WUHU216HW,2013-01-09 06:07:00,
2013-01-09 01:12:00,32.9,27.1,30.18,SSW,203,8.1,10.7,79,0.00,,,0.00,WUHU216HW,2013-01-09 06:12:00,
2013-01-09 01:17:00,33.1,27.3,30.17,SSW,203,10.1,10.7,79,0.00,,,0.00,WUHU216HW,2013-01-09 06:17:00,
2013-01-09 01:22:00,33.3,27.8,30.17,SSW,203,9.8,10.5,80,0.00,,,0.00,WUHU216HW,2013-01-09 06:22:00,
2013-01-09 01:27:00,33.3,27.8,30.17,SSW,203,11.2,11.2,80,0.00,,,0.00,WUHU216HW,2013-01-09 06:27:00,
2013-01-09 01:32:00,33.3,27.8,30.17,SSW,203,11.4,11.4,80,0.00,,,0.00,WUHU216HW,2013-01-09 06:32:00,
2013-01-09 01:37:00,33.5,27.9,30.16,SSW,203,11.0,12.1,80,0.00,,,0.00,WUHU216HW,2013-01-09 06:37:00,
2013-01-09 01:42:00,33.7,28.1,30.16,SSW,203,8.9,12.1,80,0.00,,,0.00,WUHU216HW,2013-01-09 06:42:00,
2013-01-09 01:47:00,33.8,28.3,30.16,SW,225,9.8,11.4,80,0.00,,,0.00,WUHU216HW,2013-01-09 06:47:00,
2013-01-09 01:53:00,34.0,28.4,30.16,SSW,203,10.5,12.1,80,0.00,,,0.00,WUHU216HW,2013-01-09 06:53:00,
2013-01-09 01:58:00,34.0,28.4,30.16,SSW,203,8.3,12.1,80,0.00,,,0.00,WUHU216HW,2013-01-09 06:58:00,
2013-01-09 02:03:00,34.0,28.4,30.15,SW,225,8.5,10.5,80,0.00,,,0.00,WUHU216HW,2013-01-09 07:03:00,
2013-01-09 02:08:00,33.8,28.3,30.15,SW,225,8.7,9.2,80,0.00,,,0.00,WUHU216HW,2013-01-09 07:08:00,
2013-01-09 02:13:00,33.8,28.5,30.15,SSW,203,8.5,10.3,81,0.00,,,0.00,WUHU216HW,2013-01-09 07:13:00,
2013-01-09 02:18:00,33.5,28.3,30.15,SSW,203,9.6,10.3,81,0.00,,,0.00,WUHU216HW,2013-01-09 07:18:00,
2013-01-09 02:23:00,33.5,28.3,30.15,SSW,203,10.5,10.5,81,0.00,,,0.00,WUHU216HW,2013-01-09 07:23:00,
2013-01-09 02:28:00,33.8,28.8,30.14,SSW,203,10.5,12.1,82,0.00,,,0.00,WUHU216HW,2013-01-09 07:28:00,
2013-01-09 02:33:00,34.0,29.0,30.14,South,180,10.1,12.1,82,0.00,,,0.00,WUHU216HW,2013-01-09 07:33:00,
2013-01-09 02:38:00,34.2,29.2,30.14,SSW,203,11.2,11.2,82,0.00,,,0.00,WUHU216HW,2013-01-09 07:38:00,
2013-01-09 02:43:00,34.4,29.3,30.14,SSW,203,9.8,11.2,82,0.00,,,0.00,WUHU216HW,2013-01-09 07:43:00,
2013-01-09 02:48:00,34.7,29.7,30.14,SSW,203,11.2,11.9,82,0.00,,,0.00,WUHU216HW,2013-01-09 07:48:00,
2013-01-09 02:53:00,34.9,29.9,30.14,SSW,203,11.6,11.9,82,0.00,,,0.00,WUHU216HW,2013-01-09 07:53:00,
2013-01-09 02:58:00,35.1,30.1,30.13,SSW,203,9.8,12.8,82,0.00,,,0.00,WUHU216HW,2013-01-09 07:58:00,
2013-01-09 03:03:00,35.3,30.2,30.13,SSW,203,12.1,12.8,82,0.00,,,0.00,WUHU216HW,2013-01-09 08:03:00,
2013-01-09 03:08:00,35.5,30.4,30.13,South,180,11.6,12.1,82,0.00,,,0.00,WUHU216HW,2013-01-09 08:08:00,
2013-01-09 03:13:00,35.6,30.6,30.14,SSW,203,8.5,11.6,82,0.00,,,0.00,WUHU216HW,2013-01-09 08:13:00,
2013-01-09 03:18:00,35.6,30.6,30.13,SSW,203,10.5,11.2,82,0.00,,,0.00,WUHU216HW,2013-01-09 08:18:00,
2013-01-09 03:23:00,35.6,30.6,30.13,SSW,203,9.6,10.5,82,0.00,,,0.00,WUHU216HW,2013-01-09 08:23:00,
2013-01-09 03:28:00,35.6,30.6,30.13,SW,225,9.8,11.0,82,0.00,,,0.00,WUHU216HW,2013-01-09 08:28:00,
2013-01-09 03:33:00,35.8,30.8,30.13,SSW,203,8.9,11.0,82,0.00,,,0.00,WUHU216HW,2013-01-09 08:33:00,
2013-01-09 03:38:00,36.0,31.0,30.14,SSW,203,7.2,9.2,82,0.00,,,0.00,WUHU216HW,2013-01-09 08:38:00,
2013-01-09 03:43:00,36.0,30.7,30.14,SSW,203,7.6,8.9,81,0.00,,,0.00,WUHU216HW,2013-01-09 08:43:00,
2013-01-09 03:48:00,36.2,30.9,30.14,SSW,203,7.2,8.9,81,0.00,,,0.00,WUHU216HW,2013-01-09 08:48:00,
2013-01-09 03:53:00,36.2,30.9,30.13,SSE,158,7.6,9.8,81,0.00,,,0.00,WUHU216HW,2013-01-09 08:53:00,
2013-01-09 03:58:00,36.2,31.1,30.13,SW,225,9.8,9.8,82,0.00,,,0.00,WUHU216HW,2013-01-09 08:58:00,
2013-01-09 04:03:00,36.2,31.1,30.12,SSW,203,10.1,10.1,82,0.00,,,0.00,WUHU216HW,2013-01-09 09:03:00,
2013-01-09 04:08:00,36.4,31.3,30.12,SSE,158,7.8,10.1,82,0.00,,,0.00,WUHU216HW,2013-01-09 09:08:00,
2013-01-09 04:13:00,36.4,31.3,30.12,SW,225,6.5,11.6,82,0.00,,,0.00,WUHU216HW,2013-01-09 09:13:00,
2013-01-09 04:18:00,36.5,31.9,30.13,SSW,203,6.9,11.6,83,0.00,,,0.00,WUHU216HW,2013-01-09 09:18:00,
2013-01-09 04:23:00,36.7,32.3,30.12,SW,225,11.2,12.8,84,0.00,,,0.00,WUHU216HW,2013-01-09 09:23:00,
2013-01-09 04:28:00,37.1,32.7,30.12,SSW,203,13.2,13.2,84,0.00,,,0.00,WUHU216HW,2013-01-09 09:28:00,
2013-01-09 04:33:00,37.4,33.0,30.12,SSW,203,11.9,17.2,84,0.00,,,0.00,WUHU216HW,2013-01-09 09:33:00,
2013-01-09 04:38:00,37.8,33.1,30.11,SSW,203,14.3,17.2,83,0.00,,,0.00,WUHU216HW,2013-01-09 09:38:00,
2013-01-09 04:43:00,37.8,33.1,30.11,SW,225,13.6,14.5,83,0.00,,,0.00,WUHU216HW,2013-01-09 09:43:00,
2013-01-09 04:48:00,37.8,33.1,30.11,SW,225,11.0,13.6,83,0.00,,,0.00,WUHU216HW,2013-01-09 09:48:00,
2013-01-09 04:53:00,37.8,33.1,30.11,SW,225,11.2,16.3,83,0.00,,,0.00,WUHU216HW,2013-01-09 09:53:00,
2013-01-09 04:58:00,38.0,33.3,30.11,SW,225,11.4,16.3,83,0.00,,,0.00,WUHU216HW,2013-01-09 09:58:00,
2013-01-09 05:03:00,38.3,33.3,30.11,SW,225,19.2,23.3,82,0.00,,,0.00,WUHU216HW,2013-01-09 10:03:00,
2013-01-09 05:08:00,38.3,33.3,30.12,SW,225,18.6,23.3,82,0.00,,,0.00,WUHU216HW,2013-01-09 10:08:00,
2013-01-09 05:13:00,38.3,33.3,30.11,SW,225,14.8,22.4,82,0.00,,,0.00,WUHU216HW,2013-01-09 10:13:00,
2013-01-09 05:18:00,38.5,33.5,30.12,WSW,248,21.7,22.4,82,0.00,,,0.00,WUHU216HW,2013-01-09 10:18:00,
2013-01-09 05:23:00,38.5,33.5,30.11,SW,225,22.4,22.4,82,0.00,,,0.00,WUHU216HW,2013-01-09 10:23:00,
2013-01-09 05:28:00,38.5,33.5,30.11,SW,225,22.4,22.4,82,0.00,,,0.00,WUHU216HW,2013-01-09 10:28:00,
2013-01-09 05:54:00,38.9,33.8,30.12,SW,225,17.9,23.0,82,0.00,,,0.00,WUHU216HW,2013-01-09 10:54:00,
2013-01-09 05:59:00,38.9,33.8,30.12,SW,225,16.3,23.0,82,0.00,,,0.00,WUHU216HW,2013-01-09 10:59:00,
2013-01-09 06:04:00,38.7,33.7,30.14,SW,225,18.8,20.4,82,0.00,,,0.00,WUHU216HW,2013-01-09 11:04:00,
2013-01-09 06:09:00,38.5,33.9,30.14,SW,225,14.3,22.1,83,0.00,,,0.00,WUHU216HW,2013-01-09 11:09:00,
2013-01-09 06:14:00,38.5,33.9,30.14,SW,225,19.0,22.1,83,0.00,,,0.00,WUHU216HW,2013-01-09 11:14:00,
2013-01-09 06:19:00,38.5,33.9,30.14,SW,225,13.4,19.0,83,0.00,,,0.00,WUHU216HW,2013-01-09 11:19:00,
2013-01-09 06:24:00,38.3,33.7,30.14,WSW,248,16.3,18.3,83,0.00,,,0.00,WUHU216HW,2013-01-09 11:24:00,
2013-01-09 06:29:00,38.3,33.7,30.14,SW,225,15.2,18.3,83,0.00,,,0.00,WUHU216HW,2013-01-09 11:29:00,
2013-01-09 06:34:00,38.3,33.7,30.14,SW,225,13.0,17.9,83,0.00,,,0.00,WUHU216HW,2013-01-09 11:34:00,
2013-01-09 06:39:00,38.3,33.7,30.14,WSW,248,19.5,20.1,83,0.00,,,0.00,WUHU216HW,2013-01-09 11:39:00,
2013-01-09 06:44:00,38.3,33.7,30.15,WSW,248,14.3,20.1,83,0.00,,,0.00,WUHU216HW,2013-01-09 11:44:00,
2013-01-09 06:49:00,38.2,33.5,30.15,SW,225,13.2,16.8,83,0.00,,,0.00,WUHU216HW,2013-01-09 11:49:00,
2013-01-09 06:54:00,38.2,33.8,30.15,SW,225,14.1,19.5,84,0.00,,,0.00,WUHU216HW,2013-01-09 11:54:00,
2013-01-09 06:59:00,38.2,33.8,30.15,SW,225,15.9,20.4,84,0.00,,,0.00,WUHU216HW,2013-01-09 11:59:00,
2013-01-09 07:04:00,38.2,33.8,30.16,WSW,248,12.5,20.4,84,0.00,,,0.00,WUHU216HW,2013-01-09 12:04:00,
2013-01-09 07:09:00,38.0,33.6,30.16,WSW,248,18.8,18.8,84,0.00,,,0.00,WUHU216HW,2013-01-09 12:09:00,
2013-01-09 07:14:00,38.0,33.6,30.17,SW,225,13.9,18.8,84,0.00,,,0.00,WUHU216HW,2013-01-09 12:14:00,
2013-01-09 07:19:00,38.0,33.6,30.18,WSW,248,15.7,19.0,84,0.00,,,0.00,WUHU216HW,2013-01-09 12:19:00,
2013-01-09 07:24:00,37.8,33.4,30.19,WSW,248,13.4,19.0,84,0.00,,,0.00,WUHU216HW,2013-01-09 12:24:00,
2013-01-09 07:29:00,38.0,33.6,30.19,SW,225,13.6,17.9,84,0.00,,,0.00,WUHU216HW,2013-01-09 12:29:00,
2013-01-09 07:34:00,38.0,33.6,30.19,WSW,248,18.8,19.0,84,0.00,,,0.00,WUHU216HW,2013-01-09 12:34:00,
2013-01-09 07:39:00,37.8,33.7,30.19,WSW,248,13.4,19.0,85,0.00,,,0.00,WUHU216HW,2013-01-09 12:39:00,
2013-01-09 07:44:00,37.6,33.8,30.19,WSW,248,14.8,18.6,86,0.00,,,0.00,WUHU216HW,2013-01-09 12:44:00,
2013-01-09 07:49:00,37.6,33.5,30.20,WSW,248,13.0,18.6,85,0.00,,,0.00,WUHU216HW,2013-01-09 12:49:00,
2013-01-09 07:54:00,37.6,33.8,30.20,WSW,248,9.6,17.4,86,0.00,,,0.00,WUHU216HW,2013-01-09 12:54:00,
2013-01-09 07:59:00,37.8,33.9,30.20,SW,225,11.9,18.6,86,0.00,,,0.00,WUHU216HW,2013-01-09 12:59:00,
2013-01-09 08:04:00,38.2,33.8,30.20,SW,225,18.1,26.8,84,0.00,,,0.00,WUHU216HW,2013-01-09 13:04:00,
2013-01-09 08:09:00,38.5,34.1,30.20,WSW,248,21.5,26.8,84,0.00,,,0.00,WUHU216HW,2013-01-09 13:09:00,
2013-01-09 08:14:00,38.3,33.9,30.20,WSW,248,15.4,21.5,84,0.00,,,0.00,WUHU216HW,2013-01-09 13:14:00,
2013-01-09 08:19:00,38.3,33.7,30.21,WSW,248,17.2,19.9,83,0.00,,,0.00,WUHU216HW,2013-01-09 13:19:00,
2013-01-09 08:24:00,38.3,33.3,30.22,WSW,248,15.7,24.4,82,0.00,,,0.00,WUHU216HW,2013-01-09 13:24:00,
2013-01-09 08:29:00,38.2,33.1,30.22,WSW,248,20.8,24.4,82,0.00,,,0.00,WUHU216HW,2013-01-09 13:29:00,
2013-01-09 08:34:00,38.2,33.1,30.23,WSW,248,12.8,23.0,82,0.00,,,0.00,WUHU216HW,2013-01-09 13:34:00,
2013-01-09 08:39:00,38.2,33.1,30.23,WSW,248,13.6,18.6,82,0.00,,,0.00,WUHU216HW,2013-01-09 13:39:00,
2013-01-09 08:44:00,38.0,32.9,30.24,WSW,248,14.3,17.9,82,0.00,,,0.00,WUHU216HW,2013-01-09 13:44:00,
2013-01-09 08:49:00,37.8,32.8,30.24,WSW,248,16.1,19.0,82,0.00,,,0.00,WUHU216HW,2013-01-09 13:49:00,
2013-01-09 08:54:00,37.6,32.6,30.24,WSW,248,12.8,19.0,82,0.00,,,0.00,WUHU216HW,2013-01-09 13:54:00,
2013-01-09 08:59:00,37.6,33.0,30.25,WSW,248,17.9,17.9,83,0.00,,,0.00,WUHU216HW,2013-01-09 13:59:00,
2013-01-09 09:04:00,37.4,32.8,30.25,WSW,248,11.4,17.9,83,0.00,,,0.00,WUHU216HW,2013-01-09 14:04:00,
2013-01-09 09:09:00,37.6,33.2,30.25,WSW,248,16.6,16.6,84,0.00,,,0.00,WUHU216HW,2013-01-09 14:09:00,
2013-01-09 09:14:00,37.4,33.0,30.25,WSW,248,12.8,16.6,84,0.00,,,0.00,WUHU216HW,2013-01-09 14:14:00,
2013-01-09 09:19:00,37.4,33.0,30.25,WSW,248,13.2,14.5,84,0.00,,,0.00,WUHU216HW,2013-01-09 14:19:00,
2013-01-09 09:24:00,37.3,32.9,30.25,WSW,248,13.9,14.5,84,0.00,,,0.00,WUHU216HW,2013-01-09 14:24:00,
2013-01-09 09:29:00,37.3,33.1,30.26,WSW,248,13.2,14.3,85,0.00,,,0.00,WUHU216HW,2013-01-09 14:29:00,
2013-01-09 09:34:00,37.4,33.0,30.26,WSW,248,12.1,13.2,84,0.00,,,0.00,WUHU216HW,2013-01-09 14:34:00,
2013-01-09 09:39:00,37.6,33.2,30.26,SW,225,11.9,14.1,84,0.00,,,0.00,WUHU216HW,2013-01-09 14:39:00,
2013-01-09 09:44:00,37.8,33.4,30.26,WSW,248,9.8,14.1,84,0.00,,,0.00,WUHU216HW,2013-01-09 14:44:00,
2013-01-09 09:49:00,38.3,33.7,30.26,WSW,248,11.9,14.5,83,0.00,,,0.00,WUHU216HW,2013-01-09 14:49:00,
2013-01-09 09:54:00,38.5,33.5,30.26,WSW,248,11.4,16.3,82,0.00,,,0.00,WUHU216HW,2013-01-09 14:54:00,
2013-01-09 09:59:00,38.7,33.7,30.26,SW,225,11.4,16.3,82,0.00,,,0.00,WUHU216HW,2013-01-09 14:59:00,
2013-01-09 10:04:00,38.9,33.8,30.26,WSW,248,12.8,13.4,82,0.00,,,0.00,WUHU216HW,2013-01-09 15:04:00,
2013-01-09 10:09:00,39.1,33.8,30.27,SW,225,10.5,15.2,81,0.00,,,0.00,WUHU216HW,2013-01-09 15:09:00,
2013-01-09 10:14:00,39.4,33.9,30.27,SW,225,15.7,17.4,80,0.00,,,0.00,WUHU216HW,2013-01-09 15:14:00,
2013-01-09 10:19:00,39.6,34.0,30.27,WSW,248,15.2,17.4,80,0.00,,,0.00,WUHU216HW,2013-01-09 15:19:00,
2013-01-09 10:24:00,39.8,34.1,30.27,WSW,248,14.5,15.2,80,0.00,,,0.00,WUHU216HW,2013-01-09 15:24:00,
2013-01-09 10:29:00,40.0,34.3,30.27,WSW,248,12.8,15.2,80,0.00,,,0.00,WUHU216HW,2013-01-09 15:29:00,
2013-01-09 10:34:00,40.0,33.9,30.27,SW,225,11.2,20.4,79,0.00,,,0.00,WUHU216HW,2013-01-09 15:34:00,
2013-01-09 10:39:00,40.1,34.5,30.28,WSW,248,16.6,20.4,80,0.00,,,0.00,WUHU216HW,2013-01-09 15:39:00,
2013-01-09 10:44:00,40.5,34.5,30.28,WSW,248,17.2,18.3,79,0.00,,,0.00,WUHU216HW,2013-01-09 15:44:00,
2013-01-09 10:49:00,40.7,34.3,30.28,SW,225,14.1,18.3,78,0.00,,,0.00,WUHU216HW,2013-01-09 15:49:00,
2013-01-09 10:54:00,40.7,34.7,30.28,WSW,248,15.7,18.1,79,0.00,,,0.00,WUHU216HW,2013-01-09 15:54:00,
2013-01-09 10:59:00,40.9,34.1,30.28,WSW,248,17.0,20.1,77,0.00,,,0.00,WUHU216HW,2013-01-09 15:59:00,
2013-01-09 11:04:00,41.0,34.3,30.28,SW,225,19.0,21.0,77,0.00,,,0.00,WUHU216HW,2013-01-09 16:04:00,
2013-01-09 11:09:00,41.0,34.3,30.28,WSW,248,21.9,23.7,77,0.00,,,0.00,WUHU216HW,2013-01-09 16:09:00,
2013-01-09 11:14:00,41.2,33.8,30.28,WSW,248,21.9,23.7,75,0.00,,,0.00,WUHU216HW,2013-01-09 16:14:00,
2013-01-09 11:19:00,41.4,33.7,30.28,WSW,248,21.0,24.4,74,0.00,,,0.00,WUHU216HW,2013-01-09 16:19:00,
2013-01-09 11:24:00,41.6,33.8,30.28,WSW,248,24.4,24.4,74,0.00,,,0.00,WUHU216HW,2013-01-09 16:24:00,
2013-01-09 11:29:00,41.8,34.0,30.28,WSW,248,18.3,24.4,74,0.00,,,0.00,WUHU216HW,2013-01-09 16:29:00,
2013-01-09 11:34:00,41.8,34.0,30.28,WSW,248,17.9,23.9,74,0.00,,,0.00,WUHU216HW,2013-01-09 16:34:00,
2013-01-09 11:39:00,41.8,34.4,30.28,SW,225,26.2,26.2,75,0.00,,,0.00,WUHU216HW,2013-01-09 16:39:00,
2013-01-09 11:44:00,41.8,34.4,30.28,WSW,248,22.8,26.2,75,0.00,,,0.00,WUHU216HW,2013-01-09 16:44:00,
2013-01-09 11:49:00,41.9,34.2,30.28,SW,225,20.8,25.5,74,0.00,,,0.00,WUHU216HW,2013-01-09 16:49:00,
2013-01-09 11:54:00,41.8,34.0,30.28,WSW,248,22.4,24.6,74,0.00,,,0.00,WUHU216HW,2013-01-09 16:54:00,
2013-01-09 11:59:00,41.9,34.2,30.27,SW,225,22.6,24.6,74,0.00,,,0.00,WUHU216HW,2013-01-09 16:59:00,
2013-01-09 12:04:00,42.1,34.4,30.28,WSW,248,24.6,24.6,74,0.00,,,0.00,WUHU216HW,2013-01-09 17:04:00,
2013-01-09 12:09:00,42.3,34.6,30.28,WSW,248,22.8,26.6,74,0.00,,,0.00,WUHU216HW,2013-01-09 17:09:00,
2013-01-09 12:14:00,42.3,34.6,30.27,SW,225,20.4,26.6,74,0.00,,,0.00,WUHU216HW,2013-01-09 17:14:00,
2013-01-09 12:19:00,42.5,34.7,30.28,SW,225,20.4,22.4,74,0.00,,,0.00,WUHU216HW,2013-01-09 17:19:00,
2013-01-09 12:24:00,42.3,34.3,30.27,SW,225,22.4,25.9,73,0.00,,,0.00,WUHU216HW,2013-01-09 17:24:00,
2013-01-09 12:29:00,42.5,34.7,30.27,SW,225,21.5,26.8,74,0.00,,,0.00,WUHU216HW,2013-01-09 17:29:00,
2013-01-09 12:34:00,42.5,34.5,30.27,WSW,248,23.7,27.3,73,0.00,,,0.00,WUHU216HW,2013-01-09 17:34:00,
2013-01-09 12:39:00,42.5,34.7,30.27,SW,225,24.6,27.3,74,0.00,,,0.00,WUHU216HW,2013-01-09 17:39:00,
2013-01-09 12:44:00,42.7,34.7,30.27,WSW,248,29.5,29.5,73,0.00,,,0.00,WUHU216HW,2013-01-09 17:44:00,
2013-01-09 12:49:00,42.7,34.7,30.27,SW,225,28.2,29.5,73,0.00,,,0.00,WUHU216HW,2013-01-09 17:49:00,
2013-01-09 12:54:00,42.7,34.7,30.27,WSW,248,28.2,30.4,73,0.00,,,0.00,WUHU216HW,2013-01-09 17:54:00,
2013-01-09 12:59:00,42.7,34.7,30.27,WSW,248,26.4,30.4,73,0.00,,,0.00,WUHU216HW,2013-01-09 17:59:00,
2013-01-09 13:04:00,42.7,34.7,30.27,WSW,248,29.5,29.5,73,0.00,,,0.00,WUHU216HW,2013-01-09 18:04:00,
2013-01-09 13:09:00,42.5,34.5,30.28,WSW,248,24.4,30.4,73,0.00,,,0.00,WUHU216HW,2013-01-09 18:09:00,
2013-01-09 13:14:00,42.7,34.0,30.27,SW,225,30.2,33.3,71,0.00,,,0.00,WUHU216HW,2013-01-09 18:14:00,
2013-01-09 13:19:00,42.8,34.8,30.28,SW,225,17.4,33.3,73,0.00,,,0.00,WUHU216HW,2013-01-09 18:19:00,
2013-01-09 13:24:00,42.8,34.2,30.28,WSW,248,24.4,30.4,71,0.00,,,0.00,WUHU216HW,2013-01-09 18:24:00,
2013-01-09 13:29:00,42.8,34.2,30.29,SW,225,25.3,30.0,71,0.00,,,0.00,WUHU216HW,2013-01-09 18:29:00,
2013-01-09 13:34:00,43.0,34.7,30.29,WSW,248,20.1,33.6,72,0.00,,,0.00,WUHU216HW,2013-01-09 18:34:00,
2013-01-09 13:39:00,42.8,34.2,30.29,WSW,248,27.3,36.5,71,0.00,,,0.00,WUHU216HW,2013-01-09 18:39:00,
2013-01-09 13:44:00,42.8,33.8,30.29,West,270,24.2,36.5,70,0.00,,,0.00,WUHU216HW,2013-01-09 18:44:00,
2013-01-09 13:50:00,42.8,33.8,30.29,WSW,248,24.8,34.2,70,0.00,,,0.00,WUHU216HW,2013-01-09 18:50:00,
2013-01-09 13:55:00,42.8,34.2,30.30,WSW,248,23.3,34.2,71,0.00,,,0.00,WUHU216HW,2013-01-09 18:55:00,
2013-01-09 14:00:00,43.0,33.6,30.30,SW,225,29.3,29.3,69,0.00,,,0.00,WUHU216HW,2013-01-09 19:00:00,
2013-01-09 14:05:00,43.0,33.2,30.31,West,270,24.4,36.0,68,0.00,,,0.00,WUHU216HW,2013-01-09 19:05:00,
2013-01-09 14:10:00,43.2,32.6,30.31,WSW,248,26.8,36.0,66,0.00,,,0.00,WUHU216HW,2013-01-09 19:10:00,
2013-01-09 14:15:00,43.2,33.0,30.32,WSW,248,23.0,34.0,67,0.00,,,0.00,WUHU216HW,2013-01-09 19:15:00,
2013-01-09 14:20:00,43.2,31.4,30.32,West,270,29.5,35.3,63,0.00,,,0.00,WUHU216HW,2013-01-09 19:20:00,
2013-01-09 14:25:00,43.4,32.0,30.32,WSW,248,28.9,35.3,64,0.00,,,0.00,WUHU216HW,2013-01-09 19:25:00,
2013-01-09 14:30:00,43.2,32.6,30.33,SW,225,27.5,31.1,66,0.00,,,0.00,WUHU216HW,2013-01-09 19:30:00,
2013-01-09 14:35:00,43.2,32.6,30.34,WSW,248,27.5,30.2,66,0.00,,,0.00,WUHU216HW,2013-01-09 19:35:00,
2013-01-09 14:40:00,43.0,31.7,30.34,WSW,248,25.9,36.9,64,0.00,,,0.00,WUHU216HW,2013-01-09 19:40:00,
2013-01-09 14:45:00,43.0,32.1,30.34,WSW,248,26.6,36.9,65,0.00,,,0.00,WUHU216HW,2013-01-09 19:45:00,
2013-01-09 14:50:00,43.0,32.1,30.34,WSW,248,26.8,32.4,65,0.00,,,0.00,WUHU216HW,2013-01-09 19:50:00,
2013-01-09 14:55:00,43.0,32.1,30.35,WSW,248,28.4,32.4,65,0.00,,,0.00,WUHU216HW,2013-01-09 19:55:00,
2013-01-09 15:00:00,42.8,31.1,30.35,SW,225,25.1,33.1,63,0.00,,,0.00,WUHU216HW,2013-01-09 20:00:00,
2013-01-09 15:05:00,43.0,32.1,30.35,WSW,248,20.8,34.0,65,0.00,,,0.00,WUHU216HW,2013-01-09 20:05:00,
2013-01-09 15:10:00,42.8,31.5,30.35,WSW,248,28.2,34.0,64,0.00,,,0.00,WUHU216HW,2013-01-09 20:10:00,
2013-01-09 15:15:00,43.0,31.7,30.36,WSW,248,23.3,34.0,64,0.00,,,0.00,WUHU216HW,2013-01-09 20:15:00,
2013-01-09 15:20:00,43.0,31.2,30.36,WSW,248,24.6,34.0,63,0.00,,,0.00,WUHU216HW,2013-01-09 20:20:00,
2013-01-09 15:25:00,42.8,31.1,30.35,WSW,248,25.7,28.4,63,0.00,,,0.00,WUHU216HW,2013-01-09 20:25:00,
2013-01-09 15:30:00,43.0,31.2,30.35,WSW,248,32.2,32.2,63,0.00,,,0.00,WUHU216HW,2013-01-09 20:30:00,
2013-01-09 15:35:00,42.8,31.5,30.37,WSW,248,28.0,32.2,64,0.00,,,0.00,WUHU216HW,2013-01-09 20:35:00,
2013-01-09 15:40:00,42.8,31.1,30.37,WSW,248,29.3,31.1,63,0.00,,,0.00,WUHU216HW,2013-01-09 20:40:00,
2013-01-09 15:45:00,42.8,31.1,30.37,WSW,248,30.0,31.1,63,0.00,,,0.00,WUHU216HW,2013-01-09 20:45:00,
2013-01-09 15:50:00,42.7,30.2,30.38,WSW,248,28.0,30.0,61,0.00,,,0.00,WUHU216HW,2013-01-09 20:50:00,
2013-01-09 15:55:00,42.5,30.3,30.38,SW,225,16.8,28.0,62,0.00,,,0.00,WUHU216HW,2013-01-09 20:55:00,
2013-01-09 16:00:00,42.3,30.2,30.39,WSW,248,15.2,23.0,62,0.00,,,0.00,WUHU216HW,2013-01-09 21:00:00,
2013-01-09 16:05:00,42.1,29.3,30.39,WSW,248,26.8,26.8,60,0.00,,,0.00,WUHU216HW,2013-01-09 21:05:00,
2013-01-09 16:10:00,41.9,29.4,30.40,WSW,248,15.9,26.8,61,0.00,,,0.00,WUHU216HW,2013-01-09 21:10:00,
2013-01-09 16:15:00,41.8,28.9,30.40,WSW,248,21.5,30.2,60,0.00,,,0.00,WUHU216HW,2013-01-09 21:15:00,
2013-01-09 16:20:00,41.6,28.7,30.40,WSW,248,26.6,30.2,60,0.00,,,0.00,WUHU216HW,2013-01-09 21:20:00,
2013-01-09 16:25:00,41.4,29.7,30.41,West,270,18.6,27.5,63,0.00,,,0.00,WUHU216HW,2013-01-09 21:25:00,
2013-01-09 16:30:00,41.0,29.4,30.41,WSW,248,25.3,25.3,63,0.00,,,0.00,WUHU216HW,2013-01-09 21:30:00,
2013-01-09 16:35:00,40.9,29.6,30.42,WSW,248,22.4,26.6,64,0.00,,,0.00,WUHU216HW,2013-01-09 21:35:00,
2013-01-09 16:40:00,40.7,29.8,30.42,West,270,24.6,26.8,65,0.00,,,0.00,WUHU216HW,2013-01-09 21:40:00,
2013-01-09 16:45:00,40.5,30.0,30.42,WSW,248,15.2,26.8,66,0.00,,,0.00,WUHU216HW,2013-01-09 21:45:00,
2013-01-09 16:50:00,40.3,30.2,30.42,West,270,15.7,21.9,67,0.00,,,0.00,WUHU216HW,2013-01-09 21:50:00,
2013-01-09 16:55:00,40.0,29.8,30.43,West,270,26.8,26.8,67,0.00,,,0.00,WUHU216HW,2013-01-09 21:55:00,
2013-01-09 17:00:00,40.0,29.8,30.43,WSW,248,20.8,26.8,67,0.00,,,0.00,WUHU216HW,2013-01-09 22:00:00,
2013-01-09 17:05:00,40.0,29.8,30.43,SW,225,22.4,31.1,67,0.00,,,0.00,WUHU216HW,2013-01-09 22:05:00,
2013-01-09 17:10:00,39.6,29.1,30.44,West,270,24.8,31.1,66,0.00,,,0.00,WUHU216HW,2013-01-09 22:10:00,
2013-01-09 17:15:00,39.6,29.4,30.45,West,270,13.6,24.8,67,0.00,,,0.00,WUHU216HW,2013-01-09 22:15:00,
2013-01-09 17:20:00,39.2,29.1,30.44,WSW,248,20.1,24.8,67,0.00,,,0.00,WUHU216HW,2013-01-09 22:20:00,
2013-01-09 17:25:00,39.2,29.1,30.45,WSW,248,20.6,23.7,67,0.00,,,0.00,WUHU216HW,2013-01-09 22:25:00,
2013-01-09 17:30:00,39.2,29.1,30.45,West,270,18.6,23.7,67,0.00,,,0.00,WUHU216HW,2013-01-09 22:30:00,
2013-01-09 17:35:00,39.2,29.5,30.45,West,270,19.9,23.0,68,0.00,,,0.00,WUHU216HW,2013-01-09 22:35:00,
2013-01-09 17:40:00,39.1,29.4,30.45,West,270,17.2,22.4,68,0.00,,,0.00,WUHU216HW,2013-01-09 22:40:00,
2013-01-09 17:45:00,38.9,29.5,30.46,West,270,14.1,20.8,69,0.00,,,0.00,WUHU216HW,2013-01-09 22:45:00,
2013-01-09 17:50:00,38.5,29.6,30.46,WSW,248,17.4,20.1,70,0.00,,,0.00,WUHU216HW,2013-01-09 22:50:00,
2013-01-09 17:55:00,38.5,29.6,30.46,West,270,17.2,17.4,70,0.00,,,0.00,WUHU216HW,2013-01-09 22:55:00,
2013-01-09 18:00:00,38.5,29.6,30.47,WSW,248,16.1,18.6,70,0.00,,,0.00,WUHU216HW,2013-01-09 23:00:00,
2013-01-09 18:05:00,38.3,29.4,30.47,WSW,248,14.3,18.6,70,0.00,,,0.00,WUHU216HW,2013-01-09 23:05:00,
2013-01-09 18:10:00,38.3,29.8,30.47,WNW,293,16.8,21.5,71,0.00,,,0.00,WUHU216HW,2013-01-09 23:10:00,
2013-01-09 18:15:00,38.5,30.0,30.47,West,270,15.7,25.5,71,0.00,,,0.00,WUHU216HW,2013-01-09 23:15:00,
2013-01-09 18:20:00,38.2,29.6,30.48,West,270,16.1,25.5,71,0.00,,,0.00,WUHU216HW,2013-01-09 23:20:00,
2013-01-09 18:25:00,37.8,29.6,30.48,WSW,248,13.6,18.3,72,0.00,,,0.00,WUHU216HW,2013-01-09 23:25:00,
2013-01-09 18:30:00,37.8,29.6,30.48,WSW,248,18.8,18.8,72,0.00,,,0.00,WUHU216HW,2013-01-09 23:30:00,
2013-01-09 18:35:00,37.8,30.0,30.49,WSW,248,12.8,18.8,73,0.00,,,0.00,WUHU216HW,2013-01-09 23:35:00,
2013-01-09 18:40:00,37.8,30.0,30.49,WSW,248,14.8,15.9,73,0.00,,,0.00,WUHU216HW,2013-01-09 23:40:00,
2013-01-09 18:45:00,38.0,30.1,30.50,WSW,248,12.1,15.4,73,0.00,,,0.00,WUHU216HW,2013-01-09 23:45:00,
2013-01-09 18:50:00,37.8,30.0,30.50,WSW,248,13.2,14.8,73,0.00,,,0.00,WUHU216HW,2013-01-09 23:50:00,
2013-01-09 18:55:00,37.8,30.2,30.50,West,270,13.0,13.6,74,0.00,,,0.00,WUHU216HW,2013-01-09 23:55:00,
2013-01-09 19:00:00,37.6,30.1,30.51,WSW,248,10.5,13.0,74,0.00,,,0.00,WUHU216HW,2013-01-10 00:00:00,
2013-01-09 19:05:00,37.6,30.1,30.50,WSW,248,9.4,12.1,74,0.00,,,0.00,WUHU216HW,2013-01-10 00:05:00,
2013-01-09 19:10:00,37.6,30.4,30.50,WSW,248,11.0,14.8,75,0.00,,,0.00,WUHU216HW,2013-01-10 00:10:00,
2013-01-09 19:15:00,37.3,30.4,30.51,WSW,248,11.4,14.8,76,0.00,,,0.00,WUHU216HW,2013-01-10 00:15:00,
2013-01-09 19:20:00,37.3,30.1,30.51,WSW,248,12.8,13.4,75,0.00,,,0.00,WUHU216HW,2013-01-10 00:20:00,
2013-01-09 19:25:00,37.3,30.1,30.51,West,270,11.9,13.4,75,0.00,,,0.00,WUHU216HW,2013-01-10 00:25:00,
2013-01-09 19:30:00,37.3,30.1,30.52,West,270,10.5,11.9,75,0.00,,,0.00,WUHU216HW,2013-01-10 00:30:00,
2013-01-09 19:35:00,37.1,29.9,30.52,West,270,10.7,11.9,75,0.00,,,0.00,WUHU216HW,2013-01-10 00:35:00,
2013-01-09 19:40:00,37.1,29.9,30.52,West,270,9.8,13.2,75,0.00,,,0.00,WUHU216HW,2013-01-10 00:40:00,
2013-01-09 19:45:00,37.1,29.9,30.53,WSW,248,8.5,13.2,75,0.00,,,0.00,WUHU216HW,2013-01-10 00:45:00,
2013-01-09 19:50:00,36.9,29.7,30.53,WSW,248,8.3,11.6,75,0.00,,,0.00,WUHU216HW,2013-01-10 00:50:00,
2013-01-09 19:55:00,36.9,29.7,30.53,West,270,9.2,13.6,75,0.00,,,0.00,WUHU216HW,2013-01-10 00:55:00,
2013-01-09 20:01:00,37.1,29.5,30.53,West,270,13.0,13.6,74,0.00,,,0.00,WUHU216HW,2013-01-10 01:01:00,
2013-01-09 20:06:00,37.1,29.5,30.53,WSW,248,11.0,13.0,74,0.00,,,0.00,WUHU216HW,2013-01-10 01:06:00,
2013-01-09 20:11:00,36.9,29.3,30.53,West,270,12.5,12.5,74,0.00,,,0.00,WUHU216HW,2013-01-10 01:11:00,
2013-01-09 20:16:00,36.9,29.7,30.53,WSW,248,13.0,13.0,75,0.00,,,0.00,WUHU216HW,2013-01-10 01:16:00,
2013-01-09 20:21:00,36.7,29.5,30.53,West,270,12.1,13.0,75,0.00,,,0.00,WUHU216HW,2013-01-10 01:21:00,
2013-01-09 20:26:00,36.9,29.7,30.53,West,270,10.5,13.4,75,0.00,,,0.00,WUHU216HW,2013-01-10 01:26:00,
2013-01-09 20:31:00,36.7,29.9,30.53,WSW,248,11.4,13.4,76,0.00,,,0.00,WUHU216HW,2013-01-10 01:31:00,
2013-01-09 20:36:00,36.7,29.5,30.53,West,270,11.0,13.0,75,0.00,,,0.00,WUHU216HW,2013-01-10 01:36:00,
2013-01-09 20:41:00,36.7,29.5,30.53,West,270,11.0,11.0,75,0.00,,,0.00,WUHU216HW,2013-01-10 01:41:00,
2013-01-09 21:05:00,36.4,29.5,30.55,West,270,10.7,10.7,76,0.00,,,0.00,WUHU216HW,2013-01-10 02:05:00,
2013-01-09 21:10:00,36.4,29.2,30.55,West,270,8.7,10.7,75,0.00,,,0.00,WUHU216HW,2013-01-10 02:10:00,
2013-01-09 21:15:00,36.4,29.2,30.55,West,270,7.8,9.6,75,0.00,,,0.00,WUHU216HW,2013-01-10 02:15:00,
2013-01-09 21:20:00,36.4,29.2,30.55,WSW,248,6.9,9.2,75,0.00,,,0.00,WUHU216HW,2013-01-10 02:20:00,
2013-01-09 21:25:00,36.4,29.2,30.56,WNW,293,8.5,10.5,75,0.00,,,0.00,WUHU216HW,2013-01-10 02:25:00,
2013-01-09 21:30:00,36.4,29.2,30.55,SW,225,7.8,10.5,75,0.00,,,0.00,WUHU216HW,2013-01-10 02:30:00,
2013-01-09 21:35:00,36.4,29.2,30.55,WNW,293,7.8,11.9,75,0.00,,,0.00,WUHU216HW,2013-01-10 02:35:00,
2013-01-09 21:40:00,36.2,29.0,30.55,West,270,7.4,11.9,75,0.00,,,0.00,WUHU216HW,2013-01-10 02:40:00,
2013-01-09 21:45:00,36.2,29.0,30.55,WSW,248,8.3,9.8,75,0.00,,,0.00,WUHU216HW,2013-01-10 02:45:00,
2013-01-09 21:50:00,36.0,28.8,30.56,WNW,293,7.8,9.8,75,0.00,,,0.00,WUHU216HW,2013-01-10 02:50:00,
2013-01-09 21:55:00,36.0,28.8,30.56,WSW,248,6.0,8.7,75,0.00,,,0.00,WUHU216HW,2013-01-10 02:55:00,
2013-01-09 22:00:00,36.0,28.8,30.56,West,270,6.7,8.7,75,0.00,,,0.00,WUHU216HW,2013-01-10 03:00:00,
2013-01-09 22:05:00,35.8,28.6,30.56,West,270,6.0,8.1,75,0.00,,,0.00,WUHU216HW,2013-01-10 03:05:00,
2013-01-09 22:10:00,35.6,28.4,30.56,WNW,293,5.6,7.4,75,0.00,,,0.00,WUHU216HW,2013-01-10 03:10:00,
2013-01-09 22:15:00,35.5,28.6,30.56,WNW,293,6.3,6.9,76,0.00,,,0.00,WUHU216HW,2013-01-10 03:15:00,
2013-01-09 22:20:00,35.5,28.6,30.56,WNW,293,5.1,6.9,76,0.00,,,0.00,WUHU216HW,2013-01-10 03:20:00,
2013-01-09 22:25:00,35.5,28.6,30.56,WNW,293,7.4,7.6,76,0.00,,,0.00,WUHU216HW,2013-01-10 03:25:00,
2013-01-09 22:30:00,35.5,28.6,30.56,WNW,293,5.4,7.6,76,0.00,,,0.00,WUHU216HW,2013-01-10 03:30:00,
2013-01-09 22:35:00,35.3,28.5,30.56,NW,315,5.8,6.9,76,0.00,,,0.00,WUHU216HW,2013-01-10 03:35:00,
2013-01-09 22:40:00,35.3,28.5,30.56,NNW,338,4.5,6.9,76,0.00,,,0.00,WUHU216HW,2013-01-10 03:40:00,
2013-01-09 22:45:00,35.1,28.3,30.56,NW,315,4.5,6.0,76,0.00,,,0.00,WUHU216HW,2013-01-10 03:45:00,
2013-01-09 22:50:00,35.3,28.5,30.56,NNW,338,4.9,6.0,76,0.00,,,0.00,WUHU216HW,2013-01-10 03:50:00,
2013-01-09 22:55:00,35.3,28.1,30.55,North,0,5.6,6.7,75,0.00,,,0.00,WUHU216HW,2013-01-10 03:55:00,
2013-01-09 23:00:00,35.3,28.1,30.55,NNW,338,3.6,6.7,75,0.00,,,0.00,WUHU216HW,2013-01-10 04:00:00,
2013-01-09 23:05:00,35.5,28.3,30.55,NNW,338,2.5,6.3,75,0.00,,,0.00,WUHU216HW,2013-01-10 04:05:00,
2013-01-09 23:10:00,35.3,28.1,30.55,WNW,293,2.7,6.3,75,0.00,,,0.00,WUHU216HW,2013-01-10 04:10:00,
2013-01-09 23:15:00,35.1,27.9,30.55,North,0,1.8,4.5,75,0.00,,,0.00,WUHU216HW,2013-01-10 04:15:00,
2013-01-09 23:20:00,34.9,27.7,30.55,NNW,338,3.6,3.6,75,0.00,,,0.00,WUHU216HW,2013-01-10 04:20:00,
2013-01-09 23:25:00,34.7,27.9,30.55,NW,315,4.0,4.0,76,0.00,,,0.00,WUHU216HW,2013-01-10 04:25:00,
2013-01-09 23:30:00,34.7,27.9,30.55,NW,315,3.4,4.0,76,0.00,,,0.00,WUHU216HW,2013-01-10 04:30:00,
2013-01-09 23:35:00,34.6,27.7,30.55,North,0,1.8,4.0,76,0.00,,,0.00,WUHU216HW,2013-01-10 04:35:00,
2013-01-09 23:40:00,34.2,27.4,30.55,NNE,23,0.7,3.1,76,0.00,,,0.00,WUHU216HW,2013-01-10 04:40:00,
2013-01-09 23:45:00,33.8,27.0,30.55,North,0,0.2,1.3,76,0.00,,,0.00,WUHU216HW,2013-01-10 04:45:00,
2013-01-09 23:50:00,33.5,26.6,30.55,NNW,338,0.0,0.4,76,0.00,,,0.00,WUHU216HW,2013-01-10 04:50:00,
2013-01-09 23:55:00,32.9,26.2,30.56,NNW,338,0.2,0.2,76,0.00,,,0.00,WUHU216HW,2013-01-10 04:55:00,